x

West Santa Barbara 38 Nm West Of Santa Barbara, Ca (46054) Wave Buoy

9:50 - Fri 2nd Dec 2016 All times are PST. -8 hours from GMT.

  • Sig Wave height 9.5ft
  • Swell Direction
  • Peak Period 9s
  • Average Period 8s
  • Wind
    11mph, 13mph gusts
  • Sea Temp 58°f
  • Air Temp 57°f
  • Sea Pressure 1020.2mb
  • West Santa Barbara  38 Nm West Of Santa Barbara, Ca
  • West Santa Barbara  38 Nm West Of Santa Barbara, Ca

More Historic Weather Station data

Upgrade to MSW Pro to gain access to the past 30 days of data for over 8000 Wavebouys and Weather Stations around the globe.

Join Pro

Comparision Forecast

View Surf forecast
   
ven. 12/02 9:50 9.5ft 9s 8s 11 13 mph 1020.2mb 58f 57f
8:50 9.5ft 13s 8s 13 16 mph 1019.7mb 58f 57f
7:50 9ft 10s 7s 18 22 mph 1019.4mb 58f 57f
6:50 9.5ft 11s 7s 22 27 mph 1018.9mb 58f 58f
4:50 10ft 11s 7s 25 29 mph 1017.8mb 58f 58f
3:50 9.5ft 12s 7s 27 31 mph 1017.5mb 57f 58f
2:50 10ft 12s 8s 22 27 mph 1017.4mb 57f 57f
1:50 10ft 13s 8s 25 29 mph 1017.2mb 57f 57f
12:50 9ft 11s 8s 18 22 mph 1017.9mb 57f 58f
11:50 10.5ft 12s 8s 18 20 mph 1018.3mb 57f 57f
10:50 10.5ft 12s 8s 18 22 mph 1018.7mb 57f 56f
9:50 11ft 11s 8s 18 25 mph 1018.7mb 57f 55f
8:50 10ft 13s 8s 18 22 mph 1018.2mb 57f 54f
7:50 10.5ft 13s 8s 25 29 mph 1017.8mb 57f 54f
6:50 9ft 13s 8s 18 22 mph 1017.4mb 57f 55f
5:50 10ft 14s 8s 22 29 mph 1016.4mb 58f 56f
4:50 10ft 14s 8s 22 27 mph 1016.4mb 57f 56f
3:50 9.5ft 14s 8s 18 22 mph 1016mb 57f 57f
2:50 10.5ft 11s 8s 20 25 mph 1016.3mb 58f 56f
1:50 10.5ft 10s 8s 25 27 mph 1016.4mb 58f 56f
12:50 10.5ft 15s 8s 25 29 mph 1016.4mb 58f 57f
jeu. 12/01 11:50 10ft 12s 8s 20 25 mph 1016.9mb 58f 58f
10:50 10ft 12s 8s 16 20 mph 1017.1mb 58f 58f
9:50 10ft 14s 7s 16 22 mph 1017mb 58f 58f
8:50 10ft 12s 7s 18 22 mph 1016.7mb 58f 57f
7:50 9.5ft 11s 7s 22 27 mph 1016.5mb 58f 57f
6:50 9.5ft 12s 7s 27 31 mph 1015.8mb 58f 57f
5:50 9ft 13s 7s 29 36 mph 1015.2mb 58f 57f
4:50 9ft 12s 7s 31 36 mph 1014.5mb 58f 57f
3:50 9ft 11s 7s 25 29 mph 1014.9mb 58f 57f
2:50 9ft 10s 7s 25 31 mph 1014.5mb 57f 57f
1:50 8ft 13s 7s 22 27 mph 1014.4mb 57f 57f
12:50 8ft 13s 7s 25 29 mph 1015.1mb 57f 56f
11:50 8ft 13s 7s 25 29 mph 1015.5mb 57f 56f
10:50 7ft 13s 7s 25 27 mph 1015.8mb 57f 56f
8:50 7ft 13s 7s 16 18 mph 1016mb 57f 56f
7:50 7ft 8s 7s 11 13 mph 1015.9mb 57f 56f
6:50 7ft 13s 7s 13 18 mph 1015.6mb 57f 56f
5:50 7ft 13s 6s 20 22 mph 1014.7mb 57f 55f
4:50 6.5ft 14s 6s 20 22 mph 1014mb 57f 56f
3:50 7ft 14s 6s 20 25 mph 1014.6mb 57f 56f
2:50 6.5ft 15s 6s 22 27 mph 1015.4mb 57f 56f
1:50 6.5ft 13s 6s 22 27 mph 1015.9mb 57f 56f
12:50 7ft 13s 7s 20 25 mph 1016.1mb 57f 56f
mer. 11/30 11:50 6.5ft 12s 7s 20 25 mph 1016.3mb 57f 56f
10:50 7ft 14s 6s 25 29 mph 1016.6mb 57f 57f
9:50 7ft 15s 6s 25 29 mph 1016.2mb 57f 57f
8:50 7ft 15s 7s 22 27 mph 1016.3mb 58f 57f
7:50 7ft 14s 7s 22 25 mph 1016.4mb 58f 57f
6:50 7ft 14s 7s 20 25 mph 1016.4mb 58f 57f
5:50 6.5ft 15s 6s 22 27 mph 1015.9mb 58f 57f
4:50 6.5ft 15s 7s 22 27 mph 1016.1mb 58f 57f
3:50 6.5ft 15s 7s 20 25 mph 1016.6mb 57f 57f
2:50 8ft 15s 7s 25 29 mph 1016.8mb 57f 56f
1:50 8ft 15s 8s 25 29 mph 1016.5mb 57f 56f
12:50 8ft 15s 9s 20 22 mph 1017mb 57f 56f
11:50 9ft 15s 9s 16 18 mph 1018.1mb 57f 57f
10:50 8.5ft 14s 9s 11 13 mph 1018.8mb 57f 56f
9:50 10ft 16s 9s 13 16 mph 1019.5mb 57f 56f
8:50 9.5ft 16s 9s 16 18 mph 1019.6mb 57f 57f
7:50 10.5ft 15s 10s 13 18 mph 1019.3mb 57f 57f
6:50 9.5ft 16s 9s 9 13 mph 1018.9mb 57f 56f
5:50 10.5ft 14s 10s 9 11 mph 1018.8mb 57f 56f
4:50 11ft 16s 10s 7 9 mph 1018.3mb 57f 56f
3:50 11ft 16s 11s 4 7 mph 1018.9mb 57f 56f
2:50 11ft 17s 11s 4 9 mph 1019.3mb 57f 56f
1:50 11.5ft 16s 11s 7 9 mph 1019.5mb 57f 57f
12:50 9ft 16s 10s 4 7 mph 1019.2mb 57f 56f
mar. 11/29 11:50 9ft 16s 10s  -  2 mph 1018.8mb 57f 56f
10:50 9ft 16s 9s 7 9 mph 1018.9mb 57f 57f
9:50 7.5ft 16s 9s 9 11 mph 1018.2mb 57f 57f
8:50 8ft 17s 9s 7 11 mph 1017.9mb 57f 57f
7:50 9ft 17s 9s 4 9 mph 1017.2mb 57f 57f
6:50 8.5ft 17s 9s 11 13 mph 1017mb 57f 57f
5:50 9.5ft 17s 8s 18 22 mph 1017.1mb 57f 57f
4:50 10.5ft 17s 9s 18 22 mph 1016.9mb 57f 57f
3:50 9.5ft 19s 8s 18 22 mph 1016.6mb 57f 58f
2:50 9.5ft 11s 8s 20 22 mph 1016.7mb 57f 57f
1:50 9.5ft 11s 8s 18 20 mph 1016.7mb 57f 57f
12:50 10ft 11s 8s 13 18 mph 1017.1mb 57f 56f
11:50 9ft 11s 8s 7 11 mph 1017.3mb 57f 57f
10:50 8.5ft 11s 8s 7 11 mph 1017.8mb 56f 56f
9:50 11.5ft 11s 8s 9 11 mph 1017.9mb 56f 55f
8:50 10ft 11s 8s 9 13 mph 1017mb 56f 55f
7:50 9.5ft 11s 7s 16 18 mph 1016.3mb 56f 55f